sensor_id;sensor_type;location;lat;lon;timestamp;P1;durP1;ratioP1;P2;durP2;ratioP2
20865;SDS011;10593;48.398;10.698;2024-03-23T00:54:01;2.17;;;1.83;;
20865;SDS011;10593;48.398;10.698;2024-03-23T00:56:28;2.30;;;2.13;;
20865;SDS011;10593;48.398;10.698;2024-03-23T00:58:54;2.43;;;2.17;;
20865;SDS011;10593;48.398;10.698;2024-03-23T01:01:20;3.07;;;2.10;;
20865;SDS011;10593;48.398;10.698;2024-03-23T01:03:46;2.60;;;2.13;;
20865;SDS011;10593;48.398;10.698;2024-03-23T01:06:11;2.77;;;2.37;;
20865;SDS011;10593;48.398;10.698;2024-03-23T01:08:37;2.77;;;2.13;;
20865;SDS011;10593;48.398;10.698;2024-03-23T01:11:03;2.87;;;2.23;;
20865;SDS011;10593;48.398;10.698;2024-03-23T01:13:29;2.53;;;2.40;;
20865;SDS011;10593;48.398;10.698;2024-03-23T01:15:55;2.37;;;2.20;;
20865;SDS011;10593;48.398;10.698;2024-03-23T01:18:22;2.67;;;2.03;;
20865;SDS011;10593;48.398;10.698;2024-03-23T01:20:48;2.00;;;1.90;;
20865;SDS011;10593;48.398;10.698;2024-03-23T01:23:14;2.60;;;2.27;;
20865;SDS011;10593;48.398;10.698;2024-03-23T01:25:40;2.87;;;2.00;;
20865;SDS011;10593;48.398;10.698;2024-03-23T01:28:06;2.73;;;2.23;;
20865;SDS011;10593;48.398;10.698;2024-03-23T01:30:33;2.50;;;2.30;;
20865;SDS011;10593;48.398;10.698;2024-03-23T01:32:59;2.50;;;2.40;;
20865;SDS011;10593;48.398;10.698;2024-03-23T01:35:25;2.20;;;2.10;;
20865;SDS011;10593;48.398;10.698;2024-03-23T01:37:51;2.10;;;2.00;;
20865;SDS011;10593;48.398;10.698;2024-03-23T01:40:17;1.97;;;1.87;;
20865;SDS011;10593;48.398;10.698;2024-03-23T01:42:44;2.00;;;1.90;;
20865;SDS011;10593;48.398;10.698;2024-03-23T01:45:23;2.50;;;1.90;;
20865;SDS011;10593;48.398;10.698;2024-03-23T01:47:50;2.10;;;2.00;;
20865;SDS011;10593;48.398;10.698;2024-03-23T01:50:18;2.43;;;2.23;;
20865;SDS011;10593;48.398;10.698;2024-03-23T01:52:45;2.40;;;2.20;;
20865;SDS011;10593;48.398;10.698;2024-03-23T01:55:12;2.17;;;2.07;;
20865;SDS011;10593;48.398;10.698;2024-03-23T01:57:38;2.37;;;2.20;;
20865;SDS011;10593;48.398;10.698;2024-03-23T02:00:04;2.40;;;2.20;;
20865;SDS011;10593;48.398;10.698;2024-03-23T02:02:31;2.23;;;2.13;;
20865;SDS011;10593;48.398;10.698;2024-03-23T02:04:57;2.10;;;2.00;;
20865;SDS011;10593;48.398;10.698;2024-03-23T02:07:22;2.50;;;2.23;;
20865;SDS011;10593;48.398;10.698;2024-03-23T02:09:50;2.60;;;2.10;;
20865;SDS011;10593;48.398;10.698;2024-03-23T02:12:19;2.17;;;1.77;;
20865;SDS011;10593;48.398;10.698;2024-03-23T02:14:44;1.97;;;1.87;;
20865;SDS011;10593;48.398;10.698;2024-03-23T02:17:10;2.20;;;1.93;;
20865;SDS011;10593;48.398;10.698;2024-03-23T02:19:36;1.93;;;1.80;;
20865;SDS011;10593;48.398;10.698;2024-03-23T02:22:01;2.07;;;1.97;;
20865;SDS011;10593;48.398;10.698;2024-03-23T02:24:29;2.87;;;2.20;;
20865;SDS011;10593;48.398;10.698;2024-03-23T02:26:54;2.20;;;2.10;;
20865;SDS011;10593;48.398;10.698;2024-03-23T02:29:21;2.20;;;2.10;;
20865;SDS011;10593;48.398;10.698;2024-03-23T02:31:47;2.73;;;2.10;;
20865;SDS011;10593;48.398;10.698;2024-03-23T02:34:12;2.43;;;1.97;;
20865;SDS011;10593;48.398;10.698;2024-03-23T02:36:38;2.10;;;2.00;;
20865;SDS011;10593;48.398;10.698;2024-03-23T02:39:04;2.30;;;2.10;;
20865;SDS011;10593;48.398;10.698;2024-03-23T02:41:30;2.33;;;2.13;;
20865;SDS011;10593;48.398;10.698;2024-03-23T02:43:55;2.33;;;2.13;;
20865;SDS011;10593;48.398;10.698;2024-03-23T02:46:21;2.10;;;1.90;;
20865;SDS011;10593;48.398;10.698;2024-03-23T02:48:48;2.43;;;2.23;;
20865;SDS011;10593;48.398;10.698;2024-03-23T02:51:14;3.53;;;2.03;;
20865;SDS011;10593;48.398;10.698;2024-03-23T02:53:39;1.90;;;1.80;;
20865;SDS011;10593;48.398;10.698;2024-03-23T02:56:06;1.90;;;1.80;;
20865;SDS011;10593;48.398;10.698;2024-03-23T02:58:32;2.20;;;1.83;;
20865;SDS011;10593;48.398;10.698;2024-03-23T03:00:57;1.90;;;1.80;;
20865;SDS011;10593;48.398;10.698;2024-03-23T03:03:23;2.00;;;1.90;;
20865;SDS011;10593;48.398;10.698;2024-03-23T03:05:56;2.03;;;1.93;;
20865;SDS011;10593;48.398;10.698;2024-03-23T03:08:21;1.83;;;1.73;;
20865;SDS011;10593;48.398;10.698;2024-03-23T03:10:47;1.90;;;1.80;;
20865;SDS011;10593;48.398;10.698;2024-03-23T03:13:13;2.40;;;2.20;;
20865;SDS011;10593;48.398;10.698;2024-03-23T03:15:39;2.57;;;1.83;;
20865;SDS011;10593;48.398;10.698;2024-03-23T03:18:08;2.13;;;1.93;;
20865;SDS011;10593;48.398;10.698;2024-03-23T03:20:36;1.90;;;1.77;;
20865;SDS011;10593;48.398;10.698;2024-03-23T03:23:05;2.50;;;2.30;;
20865;SDS011;10593;48.398;10.698;2024-03-23T03:25:32;3.90;;;2.20;;
20865;SDS011;10593;48.398;10.698;2024-03-23T03:27:58;2.03;;;1.93;;
20865;SDS011;10593;48.398;10.698;2024-03-23T03:30:24;2.40;;;2.30;;
20865;SDS011;10593;48.398;10.698;2024-03-23T03:32:51;3.23;;;2.93;;
20865;SDS011;10593;48.398;10.698;2024-03-23T03:35:20;1.83;;;1.73;;
20865;SDS011;10593;48.398;10.698;2024-03-23T03:37:46;2.93;;;2.00;;
20865;SDS011;10593;48.398;10.698;2024-03-23T03:40:12;2.10;;;2.00;;
20865;SDS011;10593;48.398;10.698;2024-03-23T03:42:39;2.10;;;2.00;;
20865;SDS011;10593;48.398;10.698;2024-03-23T03:45:06;2.10;;;2.00;;
20865;SDS011;10593;48.398;10.698;2024-03-23T03:47:32;2.30;;;2.13;;
20865;SDS011;10593;48.398;10.698;2024-03-23T03:49:58;2.13;;;1.93;;
20865;SDS011;10593;48.398;10.698;2024-03-23T03:52:24;2.67;;;2.07;;
20865;SDS011;10593;48.398;10.698;2024-03-23T03:54:49;2.37;;;2.00;;
20865;SDS011;10593;48.398;10.698;2024-03-23T03:57:15;2.23;;;2.13;;
20865;SDS011;10593;48.398;10.698;2024-03-23T03:59:41;2.47;;;1.90;;
20865;SDS011;10593;48.398;10.698;2024-03-23T04:02:06;2.03;;;1.93;;
20865;SDS011;10593;48.398;10.698;2024-03-23T04:04:32;2.30;;;2.10;;
20865;SDS011;10593;48.398;10.698;2024-03-23T04:07:01;2.10;;;1.90;;
20865;SDS011;10593;48.398;10.698;2024-03-23T04:09:27;2.10;;;1.90;;
20865;SDS011;10593;48.398;10.698;2024-03-23T04:11:55;2.13;;;2.03;;
20865;SDS011;10593;48.398;10.698;2024-03-23T04:14:20;2.33;;;2.13;;
20865;SDS011;10593;48.398;10.698;2024-03-23T04:16:46;2.00;;;1.90;;
20865;SDS011;10593;48.398;10.698;2024-03-23T04:19:12;2.00;;;1.77;;
20865;SDS011;10593;48.398;10.698;2024-03-23T04:21:37;2.07;;;1.97;;
20865;SDS011;10593;48.398;10.698;2024-03-23T04:24:03;1.90;;;1.80;;
20865;SDS011;10593;48.398;10.698;2024-03-23T04:26:42;2.03;;;1.80;;
20865;SDS011;10593;48.398;10.698;2024-03-23T04:29:08;2.23;;;1.63;;
20865;SDS011;10593;48.398;10.698;2024-03-23T04:31:34;2.27;;;1.80;;
20865;SDS011;10593;48.398;10.698;2024-03-23T04:34:00;2.00;;;1.90;;
20865;SDS011;10593;48.398;10.698;2024-03-23T04:36:26;2.00;;;1.90;;
20865;SDS011;10593;48.398;10.698;2024-03-23T04:38:52;1.53;;;1.43;;
20865;SDS011;10593;48.398;10.698;2024-03-23T04:41:18;1.70;;;1.60;;
20865;SDS011;10593;48.398;10.698;2024-03-23T04:43:44;1.60;;;1.50;;
20865;SDS011;10593;48.398;10.698;2024-03-23T04:46:09;1.67;;;1.57;;
20865;SDS011;10593;48.398;10.698;2024-03-23T04:48:35;1.77;;;1.67;;
20865;SDS011;10593;48.398;10.698;2024-03-23T04:51:01;2.17;;;2.00;;
20865;SDS011;10593;48.398;10.698;2024-03-23T04:53:27;2.97;;;1.90;;
20865;SDS011;10593;48.398;10.698;2024-03-23T04:55:54;2.07;;;1.93;;
20865;SDS011;10593;48.398;10.698;2024-03-23T04:58:24;2.50;;;2.10;;
20865;SDS011;10593;48.398;10.698;2024-03-23T05:00:56;1.73;;;1.63;;
20865;SDS011;10593;48.398;10.698;2024-03-23T05:03:22;1.90;;;1.80;;
20865;SDS011;10593;48.398;10.698;2024-03-23T05:05:49;2.27;;;1.50;;
20865;SDS011;10593;48.398;10.698;2024-03-23T05:08:15;2.00;;;1.80;;
20865;SDS011;10593;48.398;10.698;2024-03-23T05:10:42;1.90;;;1.70;;
20865;SDS011;10593;48.398;10.698;2024-03-23T05:13:08;1.70;;;1.60;;
20865;SDS011;10593;48.398;10.698;2024-03-23T05:15:34;1.70;;;1.60;;
20865;SDS011;10593;48.398;10.698;2024-03-23T05:18:00;1.80;;;1.70;;
20865;SDS011;10593;48.398;10.698;2024-03-23T05:20:26;1.97;;;1.87;;
20865;SDS011;10593;48.398;10.698;2024-03-23T05:22:52;2.43;;;2.10;;
20865;SDS011;10593;48.398;10.698;2024-03-23T05:25:20;1.70;;;1.60;;
20865;SDS011;10593;48.398;10.698;2024-03-23T05:27:45;1.70;;;1.60;;
20865;SDS011;10593;48.398;10.698;2024-03-23T05:30:11;1.60;;;1.50;;
20865;SDS011;10593;48.398;10.698;2024-03-23T05:32:37;2.30;;;1.60;;
20865;SDS011;10593;48.398;10.698;2024-03-23T05:35:05;1.47;;;1.37;;
20865;SDS011;10593;48.398;10.698;2024-03-23T05:37:32;1.50;;;1.40;;
20865;SDS011;10593;48.398;10.698;2024-03-23T05:40:02;2.80;;;1.83;;
20865;SDS011;10593;48.398;10.698;2024-03-23T05:42:28;1.30;;;1.27;;
20865;SDS011;10593;48.398;10.698;2024-03-23T05:44:54;1.70;;;1.43;;
20865;SDS011;10593;48.398;10.698;2024-03-23T05:47:20;2.50;;;1.53;;
20865;SDS011;10593;48.398;10.698;2024-03-23T05:49:46;1.60;;;1.50;;
20865;SDS011;10593;48.398;10.698;2024-03-23T05:52:12;1.50;;;1.40;;
20865;SDS011;10593;48.398;10.698;2024-03-23T05:54:38;2.47;;;1.60;;
20865;SDS011;10593;48.398;10.698;2024-03-23T05:57:04;1.73;;;1.63;;
20865;SDS011;10593;48.398;10.698;2024-03-23T05:59:32;1.97;;;1.80;;
20865;SDS011;10593;48.398;10.698;2024-03-23T06:01:58;1.67;;;1.57;;
20865;SDS011;10593;48.398;10.698;2024-03-23T06:04:24;1.80;;;1.70;;
20865;SDS011;10593;48.398;10.698;2024-03-23T06:06:50;1.90;;;1.53;;
20865;SDS011;10593;48.398;10.698;2024-03-23T06:09:19;2.57;;;2.37;;
20865;SDS011;10593;48.398;10.698;2024-03-23T06:11:45;4.07;;;3.70;;
20865;SDS011;10593;48.398;10.698;2024-03-23T06:14:10;4.10;;;3.80;;
20865;SDS011;10593;48.398;10.698;2024-03-23T06:16:36;2.80;;;2.60;;
20865;SDS011;10593;48.398;10.698;2024-03-23T06:19:02;2.27;;;1.70;;
20865;SDS011;10593;48.398;10.698;2024-03-23T06:21:29;2.40;;;1.67;;
20865;SDS011;10593;48.398;10.698;2024-03-23T06:23:55;1.60;;;1.50;;
20865;SDS011;10593;48.398;10.698;2024-03-23T06:26:21;1.60;;;1.50;;
20865;SDS011;10593;48.398;10.698;2024-03-23T06:28:47;1.50;;;1.40;;
20865;SDS011;10593;48.398;10.698;2024-03-23T06:31:13;1.70;;;1.60;;
20865;SDS011;10593;48.398;10.698;2024-03-23T06:33:39;1.77;;;1.60;;
20865;SDS011;10593;48.398;10.698;2024-03-23T06:36:10;1.57;;;1.47;;
20865;SDS011;10593;48.398;10.698;2024-03-23T06:38:37;1.80;;;1.70;;
20865;SDS011;10593;48.398;10.698;2024-03-23T06:41:03;1.20;;;1.10;;
20865;SDS011;10593;48.398;10.698;2024-03-23T06:43:30;1.80;;;1.70;;
20865;SDS011;10593;48.398;10.698;2024-03-23T06:45:56;2.00;;;1.87;;
20865;SDS011;10593;48.398;10.698;2024-03-23T06:48:21;1.80;;;1.67;;
20865;SDS011;10593;48.398;10.698;2024-03-23T06:50:48;1.50;;;1.40;;
20865;SDS011;10593;48.398;10.698;2024-03-23T06:53:14;1.83;;;1.73;;
20865;SDS011;10593;48.398;10.698;2024-03-23T06:55:39;1.40;;;1.30;;
20865;SDS011;10593;48.398;10.698;2024-03-23T06:58:05;1.70;;;1.60;;
20865;SDS011;10593;48.398;10.698;2024-03-23T07:00:32;2.77;;;1.83;;
20865;SDS011;10593;48.398;10.698;2024-03-23T07:02:58;2.03;;;1.80;;
20865;SDS011;10593;48.398;10.698;2024-03-23T07:05:24;3.37;;;1.70;;
20865;SDS011;10593;48.398;10.698;2024-03-23T07:07:50;1.90;;;1.80;;
20865;SDS011;10593;48.398;10.698;2024-03-23T07:10:16;1.93;;;1.67;;
20865;SDS011;10593;48.398;10.698;2024-03-23T07:12:42;1.60;;;1.50;;
20865;SDS011;10593;48.398;10.698;2024-03-23T07:15:08;1.20;;;1.10;;
20865;SDS011;10593;48.398;10.698;2024-03-23T07:17:34;1.43;;;1.33;;
20865;SDS011;10593;48.398;10.698;2024-03-23T07:20:00;1.80;;;1.40;;
20865;SDS011;10593;48.398;10.698;2024-03-23T07:22:29;1.50;;;1.40;;
20865;SDS011;10593;48.398;10.698;2024-03-23T07:24:56;1.50;;;1.40;;
20865;SDS011;10593;48.398;10.698;2024-03-23T07:27:22;2.60;;;1.40;;
20865;SDS011;10593;48.398;10.698;2024-03-23T07:29:48;1.63;;;1.53;;
20865;SDS011;10593;48.398;10.698;2024-03-23T07:32:14;1.40;;;1.30;;
20865;SDS011;10593;48.398;10.698;2024-03-23T07:34:40;1.50;;;1.40;;
20865;SDS011;10593;48.398;10.698;2024-03-23T07:37:05;1.70;;;1.60;;
20865;SDS011;10593;48.398;10.698;2024-03-23T07:39:31;1.60;;;1.50;;
20865;SDS011;10593;48.398;10.698;2024-03-23T07:41:58;1.93;;;1.83;;
20865;SDS011;10593;48.398;10.698;2024-03-23T07:44:24;1.50;;;1.40;;
20865;SDS011;10593;48.398;10.698;2024-03-23T07:46:50;1.60;;;1.50;;
20865;SDS011;10593;48.398;10.698;2024-03-23T07:49:15;1.60;;;1.50;;
20865;SDS011;10593;48.398;10.698;2024-03-23T07:51:41;1.90;;;1.70;;
20865;SDS011;10593;48.398;10.698;2024-03-23T07:54:07;1.40;;;1.40;;
20865;SDS011;10593;48.398;10.698;2024-03-23T07:56:32;1.70;;;1.60;;
20865;SDS011;10593;48.398;10.698;2024-03-23T07:58:58;1.80;;;1.70;;
20865;SDS011;10593;48.398;10.698;2024-03-23T08:01:25;1.70;;;1.60;;
20865;SDS011;10593;48.398;10.698;2024-03-23T08:03:50;2.80;;;1.73;;
20865;SDS011;10593;48.398;10.698;2024-03-23T08:06:17;1.80;;;1.70;;
20865;SDS011;10593;48.398;10.698;2024-03-23T08:08:45;1.80;;;1.70;;
20865;SDS011;10593;48.398;10.698;2024-03-23T08:11:13;1.93;;;1.83;;
20865;SDS011;10593;48.398;10.698;2024-03-23T08:13:40;2.00;;;1.90;;
20865;SDS011;10593;48.398;10.698;2024-03-23T08:16:07;2.67;;;2.00;;
20865;SDS011;10593;48.398;10.698;2024-03-23T08:18:38;1.70;;;1.60;;
20865;SDS011;10593;48.398;10.698;2024-03-23T08:21:05;2.47;;;1.90;;
20865;SDS011;10593;48.398;10.698;2024-03-23T08:23:34;1.87;;;1.77;;
20865;SDS011;10593;48.398;10.698;2024-03-23T08:26:04;1.80;;;1.70;;
20865;SDS011;10593;48.398;10.698;2024-03-23T08:28:38;2.00;;;1.90;;
20865;SDS011;10593;48.398;10.698;2024-03-23T08:31:06;2.03;;;1.83;;
20865;SDS011;10593;48.398;10.698;2024-03-23T08:33:34;1.80;;;1.70;;
20865;SDS011;10593;48.398;10.698;2024-03-23T08:36:01;1.97;;;1.87;;
20865;SDS011;10593;48.398;10.698;2024-03-23T08:38:29;2.03;;;1.83;;
20865;SDS011;10593;48.398;10.698;2024-03-23T08:41:00;1.80;;;1.70;;
20865;SDS011;10593;48.398;10.698;2024-03-23T08:43:28;1.80;;;1.70;;
20865;SDS011;10593;48.398;10.698;2024-03-23T08:46:11;1.63;;;1.53;;
20865;SDS011;10593;48.398;10.698;2024-03-23T08:48:41;1.50;;;1.40;;
20865;SDS011;10593;48.398;10.698;2024-03-23T08:51:10;1.57;;;1.47;;
20865;SDS011;10593;48.398;10.698;2024-03-23T08:53:41;1.30;;;1.30;;
20865;SDS011;10593;48.398;10.698;2024-03-23T08:56:08;1.50;;;1.40;;
20865;SDS011;10593;48.398;10.698;2024-03-23T08:58:35;1.50;;;1.40;;
20865;SDS011;10593;48.398;10.698;2024-03-23T09:01:09;1.50;;;1.40;;
20865;SDS011;10593;48.398;10.698;2024-03-23T09:03:38;1.67;;;1.30;;
20865;SDS011;10593;48.398;10.698;2024-03-23T09:06:07;1.20;;;1.20;;
20865;SDS011;10593;48.398;10.698;2024-03-23T09:08:35;0.87;;;0.87;;
20865;SDS011;10593;48.398;10.698;2024-03-23T09:11:08;1.20;;;1.20;;
20865;SDS011;10593;48.398;10.698;2024-03-23T09:13:36;1.40;;;1.40;;
20865;SDS011;10593;48.398;10.698;2024-03-23T09:16:03;1.27;;;1.17;;
20865;SDS011;10593;48.398;10.698;2024-03-23T09:18:34;1.47;;;1.37;;
20865;SDS011;10593;48.398;10.698;2024-03-23T09:21:02;1.47;;;0.80;;
20865;SDS011;10593;48.398;10.698;2024-03-23T09:23:29;0.50;;;0.50;;
20865;SDS011;10593;48.398;10.698;2024-03-23T09:25:55;0.50;;;0.50;;
20865;SDS011;10593;48.398;10.698;2024-03-23T09:28:20;0.37;;;0.37;;
20865;SDS011;10593;48.398;10.698;2024-03-23T09:30:47;0.30;;;0.30;;
20865;SDS011;10593;48.398;10.698;2024-03-23T09:33:12;0.40;;;0.40;;
20865;SDS011;10593;48.398;10.698;2024-03-23T09:35:42;0.30;;;0.30;;
20865;SDS011;10593;48.398;10.698;2024-03-23T09:38:09;0.20;;;0.20;;
20865;SDS011;10593;48.398;10.698;2024-03-23T09:40:41;0.20;;;0.20;;
20865;SDS011;10593;48.398;10.698;2024-03-23T09:43:08;0.30;;;0.20;;
20865;SDS011;10593;48.398;10.698;2024-03-23T09:45:44;0.10;;;0.10;;
20865;SDS011;10593;48.398;10.698;2024-03-23T09:48:11;0.53;;;0.30;;
20865;SDS011;10593;48.398;10.698;2024-03-23T09:50:38;0.20;;;0.20;;
20865;SDS011;10593;48.398;10.698;2024-03-23T09:53:07;0.30;;;0.20;;
20865;SDS011;10593;48.398;10.698;2024-03-23T09:55:35;0.40;;;0.40;;
20865;SDS011;10593;48.398;10.698;2024-03-23T09:58:01;0.30;;;0.30;;
20865;SDS011;10593;48.398;10.698;2024-03-23T10:00:27;0.40;;;0.40;;
20865;SDS011;10593;48.398;10.698;2024-03-23T10:02:56;0.63;;;0.30;;
20865;SDS011;10593;48.398;10.698;2024-03-23T10:05:26;0.30;;;0.30;;
20865;SDS011;10593;48.398;10.698;2024-03-23T10:07:54;0.30;;;0.30;;
20865;SDS011;10593;48.398;10.698;2024-03-23T10:10:20;0.37;;;0.37;;
20865;SDS011;10593;48.398;10.698;2024-03-23T10:12:49;0.40;;;0.40;;
20865;SDS011;10593;48.398;10.698;2024-03-23T10:15:19;0.47;;;0.40;;
20865;SDS011;10593;48.398;10.698;2024-03-23T10:17:46;0.50;;;0.47;;
20865;SDS011;10593;48.398;10.698;2024-03-23T10:20:12;0.50;;;0.50;;
20865;SDS011;10593;48.398;10.698;2024-03-23T10:22:44;2.47;;;0.90;;
20865;SDS011;10593;48.398;10.698;2024-03-23T10:25:11;0.77;;;0.60;;
20865;SDS011;10593;48.398;10.698;2024-03-23T10:27:38;1.07;;;0.70;;
20865;SDS011;10593;48.398;10.698;2024-03-23T10:30:08;0.63;;;0.60;;
20865;SDS011;10593;48.398;10.698;2024-03-23T10:32:36;0.50;;;0.50;;
20865;SDS011;10593;48.398;10.698;2024-03-23T10:35:21;0.80;;;0.80;;
20865;SDS011;10593;48.398;10.698;2024-03-23T10:37:48;1.73;;;0.70;;
20865;SDS011;10593;48.398;10.698;2024-03-23T10:40:16;0.57;;;0.50;;
20865;SDS011;10593;48.398;10.698;2024-03-23T10:42:43;1.43;;;0.80;;
20865;SDS011;10593;48.398;10.698;2024-03-23T10:45:09;0.73;;;0.70;;
20865;SDS011;10593;48.398;10.698;2024-03-23T10:47:36;1.07;;;0.80;;
20865;SDS011;10593;48.398;10.698;2024-03-23T10:50:03;1.00;;;0.83;;
20865;SDS011;10593;48.398;10.698;2024-03-23T10:52:31;1.00;;;1.00;;
20865;SDS011;10593;48.398;10.698;2024-03-23T10:54:58;1.10;;;1.00;;
20865;SDS011;10593;48.398;10.698;2024-03-23T10:57:40;1.33;;;1.13;;
20865;SDS011;10593;48.398;10.698;2024-03-23T11:00:13;1.83;;;0.90;;
20865;SDS011;10593;48.398;10.698;2024-03-23T11:02:41;1.20;;;1.00;;
20865;SDS011;10593;48.398;10.698;2024-03-23T11:07:51;1.97;;;1.30;;
20865;SDS011;10593;48.398;10.698;2024-03-23T11:10:30;1.93;;;1.30;;
20865;SDS011;10593;48.398;10.698;2024-03-23T11:12:58;1.50;;;1.00;;
20865;SDS011;10593;48.398;10.698;2024-03-23T11:15:47;3.03;;;1.63;;
20865;SDS011;10593;48.398;10.698;2024-03-23T11:18:12;1.23;;;1.13;;
20865;SDS011;10593;48.398;10.698;2024-03-23T11:20:46;1.93;;;1.50;;
20865;SDS011;10593;48.398;10.698;2024-03-23T11:23:27;2.07;;;1.60;;
20865;SDS011;10593;48.398;10.698;2024-03-23T11:25:53;1.87;;;1.33;;
20865;SDS011;10593;48.398;10.698;2024-03-23T11:28:19;2.00;;;1.70;;
20865;SDS011;10593;48.398;10.698;2024-03-23T11:30:46;2.00;;;1.73;;
20865;SDS011;10593;48.398;10.698;2024-03-23T11:33:12;1.50;;;1.40;;
20865;SDS011;10593;48.398;10.698;2024-03-23T11:35:38;2.80;;;1.70;;
20865;SDS011;10593;48.398;10.698;2024-03-23T11:38:06;1.40;;;1.30;;
20865;SDS011;10593;48.398;10.698;2024-03-23T11:40:40;2.00;;;1.70;;
20865;SDS011;10593;48.398;10.698;2024-03-23T11:43:09;2.80;;;1.40;;
20865;SDS011;10593;48.398;10.698;2024-03-23T11:45:39;3.57;;;1.60;;
20865;SDS011;10593;48.398;10.698;2024-03-23T11:48:21;1.80;;;1.20;;
20865;SDS011;10593;48.398;10.698;2024-03-23T11:50:48;2.40;;;1.60;;
20865;SDS011;10593;48.398;10.698;2024-03-23T11:53:20;1.40;;;1.30;;
20865;SDS011;10593;48.398;10.698;2024-03-23T11:55:48;2.67;;;1.50;;
20865;SDS011;10593;48.398;10.698;2024-03-23T11:58:19;2.33;;;1.40;;
20865;SDS011;10593;48.398;10.698;2024-03-23T12:03:22;3.00;;;1.50;;
20865;SDS011;10593;48.398;10.698;2024-03-23T12:05:54;3.00;;;1.43;;
20865;SDS011;10593;48.398;10.698;2024-03-23T12:08:24;1.70;;;1.37;;
20865;SDS011;10593;48.398;10.698;2024-03-23T12:11:08;1.80;;;1.47;;
20865;SDS011;10593;48.398;10.698;2024-03-23T12:13:36;2.43;;;2.00;;
20865;SDS011;10593;48.398;10.698;2024-03-23T12:16:13;1.83;;;1.60;;
20865;SDS011;10593;48.398;10.698;2024-03-23T12:18:40;2.23;;;1.77;;
20865;SDS011;10593;48.398;10.698;2024-03-23T12:21:07;2.17;;;1.70;;
20865;SDS011;10593;48.398;10.698;2024-03-23T12:23:34;3.90;;;2.70;;
20865;SDS011;10593;48.398;10.698;2024-03-23T12:26:01;2.30;;;1.80;;
20865;SDS011;10593;48.398;10.698;2024-03-23T12:28:27;3.17;;;2.00;;
20865;SDS011;10593;48.398;10.698;2024-03-23T12:30:53;2.87;;;1.77;;
20865;SDS011;10593;48.398;10.698;2024-03-23T12:33:20;3.83;;;1.87;;
20865;SDS011;10593;48.398;10.698;2024-03-23T12:35:46;3.27;;;1.90;;
20865;SDS011;10593;48.398;10.698;2024-03-23T12:38:16;2.43;;;1.60;;
20865;SDS011;10593;48.398;10.698;2024-03-23T12:40:45;2.97;;;1.83;;
20865;SDS011;10593;48.398;10.698;2024-03-23T12:43:15;2.33;;;1.90;;
20865;SDS011;10593;48.398;10.698;2024-03-23T12:45:41;2.03;;;1.80;;
20865;SDS011;10593;48.398;10.698;2024-03-23T12:48:12;2.47;;;1.70;;
20865;SDS011;10593;48.398;10.698;2024-03-23T12:50:38;2.40;;;1.83;;
20865;SDS011;10593;48.398;10.698;2024-03-23T12:53:03;1.70;;;1.50;;
20865;SDS011;10593;48.398;10.698;2024-03-23T12:55:29;4.80;;;1.97;;
20865;SDS011;10593;48.398;10.698;2024-03-23T12:57:55;3.77;;;2.33;;
20865;SDS011;10593;48.398;10.698;2024-03-23T13:00:21;2.60;;;1.97;;
20865;SDS011;10593;48.398;10.698;2024-03-23T13:02:47;2.20;;;1.90;;
20865;SDS011;10593;48.398;10.698;2024-03-23T13:05:13;1.83;;;1.60;;
20865;SDS011;10593;48.398;10.698;2024-03-23T13:07:38;1.57;;;1.47;;
20865;SDS011;10593;48.398;10.698;2024-03-23T13:10:05;2.13;;;1.17;;
20865;SDS011;10593;48.398;10.698;2024-03-23T13:12:31;1.33;;;1.20;;
20865;SDS011;10593;48.398;10.698;2024-03-23T13:15:00;2.73;;;1.60;;
20865;SDS011;10593;48.398;10.698;2024-03-23T13:17:26;1.37;;;1.10;;
20865;SDS011;10593;48.398;10.698;2024-03-23T13:19:53;1.00;;;0.97;;
20865;SDS011;10593;48.398;10.698;2024-03-23T13:22:20;1.23;;;0.90;;
20865;SDS011;10593;48.398;10.698;2024-03-23T13:24:46;2.40;;;1.20;;
20865;SDS011;10593;48.398;10.698;2024-03-23T13:27:12;1.20;;;1.10;;
20865;SDS011;10593;48.398;10.698;2024-03-23T13:29:38;1.97;;;1.30;;
20865;SDS011;10593;48.398;10.698;2024-03-23T13:32:04;2.30;;;1.23;;
20865;SDS011;10593;48.398;10.698;2024-03-23T13:34:30;1.20;;;1.10;;
20865;SDS011;10593;48.398;10.698;2024-03-23T13:36:56;1.37;;;1.10;;
20865;SDS011;10593;48.398;10.698;2024-03-23T13:39:23;1.50;;;1.40;;
20865;SDS011;10593;48.398;10.698;2024-03-23T13:41:48;1.17;;;1.10;;
20865;SDS011;10593;48.398;10.698;2024-03-23T13:44:14;1.10;;;0.97;;
20865;SDS011;10593;48.398;10.698;2024-03-23T13:46:41;1.73;;;1.30;;
20865;SDS011;10593;48.398;10.698;2024-03-23T13:49:08;1.70;;;1.20;;
20865;SDS011;10593;48.398;10.698;2024-03-23T13:51:55;1.57;;;1.20;;
20865;SDS011;10593;48.398;10.698;2024-03-23T13:54:23;2.10;;;1.20;;
20865;SDS011;10593;48.398;10.698;2024-03-23T13:56:52;1.70;;;1.07;;
20865;SDS011;10593;48.398;10.698;2024-03-23T13:59:19;1.53;;;1.30;;
20865;SDS011;10593;48.398;10.698;2024-03-23T14:01:46;1.33;;;1.10;;
20865;SDS011;10593;48.398;10.698;2024-03-23T14:04:12;1.50;;;0.90;;
20865;SDS011;10593;48.398;10.698;2024-03-23T14:06:38;3.03;;;1.20;;
20865;SDS011;10593;48.398;10.698;2024-03-23T14:09:04;1.17;;;1.00;;
20865;SDS011;10593;48.398;10.698;2024-03-23T14:11:33;2.07;;;1.03;;
20865;SDS011;10593;48.398;10.698;2024-03-23T14:14:01;2.47;;;1.00;;
20865;SDS011;10593;48.398;10.698;2024-03-23T14:16:28;1.27;;;1.03;;
20865;SDS011;10593;48.398;10.698;2024-03-23T14:18:58;1.87;;;1.23;;
20865;SDS011;10593;48.398;10.698;2024-03-23T14:21:24;1.67;;;1.30;;
20865;SDS011;10593;48.398;10.698;2024-03-23T14:23:50;3.80;;;1.00;;
20865;SDS011;10593;48.398;10.698;2024-03-23T14:26:15;2.10;;;1.23;;
20865;SDS011;10593;48.398;10.698;2024-03-23T14:28:41;3.20;;;1.33;;
20865;SDS011;10593;48.398;10.698;2024-03-23T14:31:07;2.33;;;1.77;;
20865;SDS011;10593;48.398;10.698;2024-03-23T14:33:38;1.57;;;1.17;;
20865;SDS011;10593;48.398;10.698;2024-03-23T14:36:12;2.67;;;1.60;;
20865;SDS011;10593;48.398;10.698;2024-03-23T14:38:42;2.97;;;1.73;;
20865;SDS011;10593;48.398;10.698;2024-03-23T14:41:12;2.13;;;1.40;;
20865;SDS011;10593;48.398;10.698;2024-03-23T14:43:38;2.13;;;1.53;;
20865;SDS011;10593;48.398;10.698;2024-03-23T14:46:13;2.57;;;1.40;;
20865;SDS011;10593;48.398;10.698;2024-03-23T14:48:42;1.80;;;1.43;;
20865;SDS011;10593;48.398;10.698;2024-03-23T14:51:09;2.20;;;1.40;;
20865;SDS011;10593;48.398;10.698;2024-03-23T14:53:36;1.47;;;1.30;;
20865;SDS011;10593;48.398;10.698;2024-03-23T14:56:05;1.87;;;1.00;;
20865;SDS011;10593;48.398;10.698;2024-03-23T14:58:40;1.43;;;1.30;;
20865;SDS011;10593;48.398;10.698;2024-03-23T15:01:06;4.13;;;1.40;;
20865;SDS011;10593;48.398;10.698;2024-03-23T15:03:37;2.17;;;1.30;;
20865;SDS011;10593;48.398;10.698;2024-03-23T15:06:08;5.53;;;1.73;;
20865;SDS011;10593;48.398;10.698;2024-03-23T15:08:36;3.30;;;2.27;;
20865;SDS011;10593;48.398;10.698;2024-03-23T15:11:03;2.80;;;1.87;;
20865;SDS011;10593;48.398;10.698;2024-03-23T15:13:32;1.83;;;1.40;;
20865;SDS011;10593;48.398;10.698;2024-03-23T15:16:02;2.80;;;1.60;;
20865;SDS011;10593;48.398;10.698;2024-03-23T15:18:29;2.47;;;1.53;;
20865;SDS011;10593;48.398;10.698;2024-03-23T15:20:56;1.43;;;1.00;;
20865;SDS011;10593;48.398;10.698;2024-03-23T15:23:31;1.57;;;1.13;;
20865;SDS011;10593;48.398;10.698;2024-03-23T15:25:57;1.33;;;1.00;;
20865;SDS011;10593;48.398;10.698;2024-03-23T15:28:25;1.77;;;1.00;;
20865;SDS011;10593;48.398;10.698;2024-03-23T15:31:03;2.40;;;1.57;;
20865;SDS011;10593;48.398;10.698;2024-03-23T15:33:34;1.70;;;1.20;;